createdAt,value
2019-05-14T00:01:43.453Z,99.90
2019-05-14T00:04:11.544Z,99.90
2019-05-14T00:06:38.076Z,99.90
2019-05-14T00:09:04.521Z,99.90
2019-05-14T00:11:31.316Z,99.90
2019-05-14T00:13:57.739Z,99.90
2019-05-14T00:16:24.401Z,99.90
2019-05-14T00:18:51.208Z,99.90
2019-05-14T00:21:17.593Z,99.90
2019-05-14T00:23:43.837Z,99.90
2019-05-14T00:26:11.998Z,99.90
2019-05-14T00:28:38.154Z,99.90
2019-05-14T00:31:04.509Z,99.90
2019-05-14T00:33:31.526Z,99.90
2019-05-14T00:35:57.945Z,99.90
2019-05-14T00:38:24.181Z,99.90
2019-05-14T00:40:51.392Z,99.90
2019-05-14T00:43:17.898Z,99.90
2019-05-14T00:45:44.161Z,99.90
2019-05-14T00:48:12.553Z,99.90
2019-05-14T00:50:44.529Z,99.90
2019-05-14T00:53:11.812Z,99.90
2019-05-14T00:55:39.332Z,99.90
2019-05-14T00:58:05.700Z,99.90
2019-05-14T01:00:32.088Z,99.90
2019-05-14T01:03:01.985Z,99.90
2019-05-14T01:05:28.541Z,99.90
2019-05-14T01:07:54.858Z,99.90
2019-05-14T01:10:22.140Z,99.90
2019-05-14T01:12:48.487Z,99.90
2019-05-14T01:15:15.034Z,99.90
2019-05-14T01:17:42.158Z,99.90
2019-05-14T01:20:09.141Z,99.90
2019-05-14T01:22:35.393Z,99.90
2019-05-14T01:25:01.763Z,99.90
2019-05-14T01:27:28.036Z,99.90
2019-05-14T01:29:54.296Z,99.90
2019-05-14T01:32:22.107Z,99.90
2019-05-14T01:34:48.442Z,99.90
2019-05-14T01:37:14.630Z,99.90
2019-05-14T01:39:41.781Z,99.90
2019-05-14T01:42:08.355Z,99.90
2019-05-14T01:44:34.814Z,99.90
2019-05-14T01:47:01.974Z,99.90
2019-05-14T01:49:28.357Z,99.90
2019-05-14T01:51:54.616Z,99.90
2019-05-14T01:54:21.225Z,99.90
2019-05-14T01:56:47.575Z,99.90
2019-05-14T01:59:18.077Z,99.90
2019-05-14T02:01:44.332Z,99.90
2019-05-14T02:04:12.581Z,99.90
2019-05-14T02:06:41.100Z,99.90
2019-05-14T02:09:07.049Z,99.90
2019-05-14T02:11:33.380Z,99.90
2019-05-14T02:13:59.715Z,99.90
2019-05-14T02:16:25.989Z,99.90
2019-05-14T02:18:52.429Z,99.90
2019-05-14T02:21:18.706Z,99.90
2019-05-14T02:23:45.073Z,99.90
2019-05-14T02:26:11.499Z,99.90
2019-05-14T02:28:37.722Z,99.90
2019-05-14T02:31:04.235Z,99.90
2019-05-14T02:33:30.985Z,99.90
2019-05-14T02:35:59.926Z,99.90
2019-05-14T02:38:25.512Z,99.90
2019-05-14T02:40:51.884Z,99.90
2019-05-14T02:43:19.970Z,99.90
2019-05-14T02:46:02.054Z,99.90
2019-05-14T02:48:14.287Z,99.90
2019-05-14T02:50:40.544Z,99.90
2019-05-14T02:53:09.976Z,99.90
2019-05-14T02:55:35.105Z,99.90
2019-05-14T02:58:01.666Z,99.90
2019-05-14T03:00:30.017Z,99.90
2019-05-14T03:02:59.526Z,99.90
2019-05-14T03:05:24.183Z,99.90
2019-05-14T03:07:50.421Z,99.90
2019-05-14T03:10:19.374Z,99.90
2019-05-14T03:12:45.091Z,99.90
2019-05-14T03:15:12.026Z,99.90
2019-05-14T03:17:40.507Z,99.90
2019-05-14T03:20:09.086Z,99.90
2019-05-14T03:22:52.517Z,99.90
2019-05-14T03:25:05.747Z,99.90
2019-05-14T03:27:32.207Z,99.90
2019-05-14T03:29:58.646Z,99.90
2019-05-14T03:32:25.119Z,99.90
2019-05-14T03:34:53.679Z,99.90
2019-05-14T03:37:23.292Z,99.90
2019-05-14T03:39:49.324Z,99.90
2019-05-14T03:42:19.021Z,99.90
2019-05-14T03:44:44.301Z,99.90
2019-05-14T03:47:10.909Z,99.90
2019-05-14T03:49:39.751Z,99.90
2019-05-14T03:52:05.493Z,99.90
2019-05-14T03:54:31.948Z,99.90
2019-05-14T03:57:00.307Z,99.90
2019-05-14T03:59:29.153Z,99.90
2019-05-14T04:01:55.297Z,99.90
2019-05-14T04:04:21.719Z,99.90
2019-05-14T04:06:49.878Z,99.90
2019-05-14T04:09:20.248Z,99.90
2019-05-14T04:11:50.176Z,99.90
2019-05-14T04:14:19.865Z,99.90
2019-05-14T04:17:01.474Z,99.90
2019-05-14T04:19:20.089Z,99.90
2019-05-14T04:21:49.168Z,99.90
2019-05-14T04:24:20.090Z,99.90
2019-05-14T04:26:59.836Z,99.90
2019-05-14T04:29:19.811Z,99.90
2019-05-14T04:31:49.955Z,99.90
2019-05-14T04:34:15.100Z,99.90
2019-05-14T04:36:41.600Z,99.90
2019-05-14T04:39:09.451Z,99.90
2019-05-14T04:41:39.117Z,99.90
2019-05-14T04:44:04.076Z,99.90
2019-05-14T04:46:30.598Z,99.90
2019-05-14T04:48:59.146Z,99.90
2019-05-14T04:51:25.073Z,99.90
2019-05-14T04:53:51.390Z,99.90
2019-05-14T04:56:19.520Z,99.90
2019-05-14T04:58:49.282Z,99.90
2019-05-14T05:01:14.298Z,99.90
2019-05-14T05:03:40.720Z,99.90
2019-05-14T05:06:09.853Z,99.90
2019-05-14T05:08:35.390Z,99.90
2019-05-14T05:11:01.646Z,99.90
2019-05-14T05:13:29.303Z,99.90
2019-05-14T05:15:55.785Z,99.90
2019-05-14T05:18:22.017Z,99.90
2019-05-14T05:20:50.559Z,99.90
2019-05-14T05:23:18.825Z,99.90
2019-05-14T05:25:44.759Z,99.90
2019-05-14T05:28:11.131Z,99.90
2019-05-14T05:30:38.540Z,99.90
2019-05-14T05:33:04.982Z,99.90
2019-05-14T05:35:31.496Z,99.90
2019-05-14T05:37:58.402Z,99.90
2019-05-14T05:40:24.774Z,99.90
2019-05-14T05:42:51.093Z,99.90
2019-05-14T05:45:18.610Z,99.90
2019-05-14T05:47:55.311Z,99.90
2019-05-14T05:50:13.542Z,99.90
2019-05-14T05:52:39.947Z,99.90
2019-05-14T05:55:08.939Z,99.90
2019-05-14T05:57:35.576Z,99.90
2019-05-14T06:00:05.756Z,99.90
2019-05-14T06:02:32.318Z,99.90
2019-05-14T06:04:58.813Z,99.90
2019-05-14T06:07:25.181Z,99.90
2019-05-14T06:09:51.479Z,99.90
2019-05-14T06:12:18.969Z,99.90
2019-05-14T06:14:45.599Z,99.90
2019-05-14T06:17:11.991Z,99.90
2019-05-14T06:19:38.505Z,99.90
2019-05-14T06:22:04.999Z,99.90
2019-05-14T06:24:31.390Z,99.90
2019-05-14T06:26:58.602Z,99.90
2019-05-14T06:29:25.252Z,99.90
2019-05-14T06:31:51.520Z,99.90
2019-05-14T06:34:18.629Z,99.90
2019-05-14T06:36:45.094Z,99.90
2019-05-14T06:39:11.380Z,99.90
2019-05-14T06:41:42.434Z,99.90
2019-05-14T06:44:05.829Z,99.90
2019-05-14T06:46:32.146Z,99.90
2019-05-14T06:48:59.214Z,99.90
2019-05-14T06:51:25.645Z,99.90
2019-05-14T06:53:51.947Z,99.90
2019-05-14T06:56:21.412Z,99.90
2019-05-14T06:58:48.857Z,99.90
2019-05-14T07:01:14.723Z,99.90
2019-05-14T07:03:40.992Z,99.90
2019-05-14T07:06:09.049Z,99.90
2019-05-14T07:08:35.734Z,99.90
2019-05-14T07:11:02.259Z,99.90
2019-05-14T07:13:29.228Z,99.90
2019-05-14T07:15:58.181Z,99.90
2019-05-14T07:18:28.116Z,99.90
2019-05-14T07:20:54.423Z,99.90
2019-05-14T07:23:20.672Z,99.90
2019-05-14T07:25:48.342Z,99.90
2019-05-14T07:28:14.668Z,99.90
2019-05-14T07:30:41.054Z,99.90
2019-05-14T07:33:09.471Z,99.90
2019-05-14T07:35:38.058Z,99.90
2019-05-14T07:38:03.635Z,99.90
2019-05-14T07:40:29.909Z,99.90
2019-05-14T07:42:58.199Z,99.90
2019-05-14T07:45:24.371Z,99.90
2019-05-14T07:47:50.692Z,99.90
2019-05-14T07:50:19.524Z,99.90
2019-05-14T07:52:45.946Z,99.90
2019-05-14T07:55:12.812Z,99.90
2019-05-14T07:57:39.486Z,99.90
2019-05-14T08:00:08.271Z,99.90
2019-05-14T08:02:37.863Z,99.90
2019-05-14T08:05:04.539Z,99.90
2019-05-14T08:07:31.039Z,99.90
2019-05-14T08:09:58.361Z,99.90
2019-05-14T08:12:24.825Z,99.90
2019-05-14T08:15:13.068Z,99.90
2019-05-14T08:17:19.352Z,99.90
2019-05-14T08:19:45.604Z,99.90
2019-05-14T08:22:11.909Z,99.90
2019-05-14T08:24:38.667Z,99.90
2019-05-14T08:27:05.105Z,99.90
2019-05-14T08:29:31.318Z,99.90
2019-05-14T08:31:58.251Z,99.90
2019-05-14T08:34:24.886Z,99.90
2019-05-14T08:36:51.330Z,99.90
2019-05-14T08:39:18.602Z,99.90
2019-05-14T08:41:55.772Z,99.90
2019-05-14T08:44:13.162Z,99.90
2019-05-14T08:46:39.563Z,99.50
2019-05-14T08:49:06.035Z,99.60
2019-05-14T08:51:32.453Z,98.20
2019-05-14T08:53:59.344Z,97.50
2019-05-14T08:56:28.055Z,98.40
2019-05-14T08:58:53.950Z,99.30
2019-05-14T09:01:20.208Z,95.40
2019-05-14T09:04:08.821Z,95.60
2019-05-14T09:06:34.961Z,94.50
2019-05-14T09:09:01.768Z,93.50
2019-05-14T09:11:34.452Z,94.50
2019-05-14T09:13:56.181Z,96.40
2019-05-14T09:16:38.417Z,95.00
2019-05-14T09:18:50.837Z,96.70
2019-05-14T09:21:20.211Z,96.00
2019-05-14T09:23:48.062Z,94.90
2019-05-14T09:26:13.852Z,90.90
2019-05-14T09:28:40.326Z,90.10
2019-05-14T09:31:09.908Z,90.10
2019-05-14T09:33:38.672Z,91.70
2019-05-14T09:36:19.687Z,89.40
2019-05-14T09:38:35.083Z,86.10
2019-05-14T09:41:11.385Z,82.50
2019-05-14T09:43:29.885Z,81.50
2019-05-14T09:45:58.542Z,79.90
2019-05-14T09:48:24.413Z,82.20
2019-05-14T09:50:50.711Z,76.10
2019-05-14T09:53:18.195Z,74.00
2019-05-14T09:55:44.838Z,71.90
2019-05-14T09:58:11.097Z,74.90
2019-05-14T10:00:38.978Z,73.10
2019-05-14T10:03:09.247Z,71.50
2019-05-14T10:05:33.964Z,70.20
2019-05-14T10:08:00.534Z,69.30
2019-05-14T10:10:30.338Z,60.90
2019-05-14T10:12:57.178Z,63.20
2019-05-14T10:15:23.599Z,63.40
2019-05-14T10:17:50.168Z,60.90
2019-05-14T10:20:35.573Z,63.00
2019-05-14T10:22:45.307Z,62.60
2019-05-14T10:25:11.867Z,62.80
2019-05-14T10:27:38.160Z,64.60
2019-05-14T10:30:09.279Z,66.50
2019-05-14T10:32:34.364Z,62.50
2019-05-14T10:35:00.673Z,63.30
2019-05-14T10:37:28.814Z,64.00
2019-05-14T10:39:58.648Z,62.40
2019-05-14T10:42:24.363Z,61.60
2019-05-14T10:44:50.868Z,61.50
2019-05-14T10:47:21.652Z,61.40
2019-05-14T10:49:48.740Z,59.30
2019-05-14T10:52:14.941Z,58.50
2019-05-14T10:54:54.980Z,57.90
2019-05-14T10:57:09.857Z,58.00
2019-05-14T10:59:36.249Z,57.30
2019-05-14T11:02:02.835Z,56.10
2019-05-14T11:04:29.197Z,54.80
2019-05-14T11:06:56.053Z,53.70
2019-05-14T11:09:22.845Z,53.70
2019-05-14T11:11:49.496Z,52.90
2019-05-14T11:14:19.268Z,56.70
2019-05-14T11:16:45.580Z,55.20
2019-05-14T11:19:13.013Z,54.40
2019-05-14T11:21:39.407Z,54.20
2019-05-14T11:24:09.185Z,54.40
2019-05-14T11:26:39.182Z,54.50
2019-05-14T11:29:07.659Z,52.90
2019-05-14T11:31:34.444Z,53.60
2019-05-14T11:34:01.010Z,54.20
2019-05-14T11:36:29.369Z,54.30
2019-05-14T11:39:00.576Z,54.60
2019-05-14T11:41:24.362Z,54.40
2019-05-14T11:43:54.513Z,53.40
2019-05-14T11:46:33.201Z,53.80
2019-05-14T11:48:49.397Z,53.60
2019-05-14T11:51:15.805Z,53.10
2019-05-14T11:53:42.126Z,52.70
2019-05-14T11:56:08.948Z,51.30
2019-05-14T11:58:36.973Z,51.50
2019-05-14T12:01:03.453Z,52.50
2019-05-14T12:03:29.766Z,52.70
2019-05-14T12:05:58.622Z,51.30
2019-05-14T12:08:24.408Z,51.40
2019-05-14T12:10:50.951Z,51.50
2019-05-14T12:13:20.103Z,52.40
2019-05-14T12:15:48.631Z,51.60
2019-05-14T12:18:14.485Z,51.90
2019-05-14T12:20:40.761Z,51.90
2019-05-14T12:23:08.909Z,52.40
2019-05-14T12:25:35.074Z,52.80
2019-05-14T12:28:01.910Z,51.70
2019-05-14T12:30:28.775Z,52.40
2019-05-14T12:32:58.836Z,51.70
2019-05-14T12:35:24.398Z,51.40
2019-05-14T12:37:50.707Z,50.50
2019-05-14T12:40:19.293Z,51.10
2019-05-14T12:42:45.534Z,51.60
2019-05-14T12:45:12.294Z,52.10
2019-05-14T12:47:38.832Z,52.30
2019-05-14T12:50:09.355Z,53.20
2019-05-14T12:52:35.705Z,52.70
2019-05-14T12:55:04.314Z,52.20
2019-05-14T12:57:30.765Z,51.70
2019-05-14T12:59:58.218Z,51.30
2019-05-14T13:02:24.735Z,51.40
2019-05-14T13:04:51.278Z,51.70
2019-05-14T13:07:19.358Z,51.70
2019-05-14T13:09:45.724Z,51.30
2019-05-14T13:12:12.132Z,51.70
2019-05-14T13:14:39.490Z,52.50
2019-05-14T13:17:06.023Z,54.00
2019-05-14T13:19:32.420Z,57.90
2019-05-14T13:22:13.193Z,57.70
2019-05-14T13:24:28.822Z,55.20
2019-05-14T13:26:55.207Z,53.50
2019-05-14T13:29:21.581Z,52.00
2019-05-14T13:31:49.739Z,51.80
2019-05-14T13:34:16.096Z,53.20
2019-05-14T13:36:44.955Z,51.70
2019-05-14T13:39:13.429Z,51.50
2019-05-14T13:41:41.863Z,51.90
2019-05-14T13:44:18.518Z,53.50
2019-05-14T13:46:36.982Z,55.30
2019-05-14T13:49:03.313Z,53.30
2019-05-14T13:51:33.425Z,52.10
2019-05-14T13:53:58.925Z,50.90
2019-05-14T13:56:25.484Z,51.10
2019-05-14T13:58:52.109Z,50.70
2019-05-14T14:01:19.371Z,49.10
2019-05-14T14:03:52.394Z,49.30
2019-05-14T14:06:14.437Z,49.60
2019-05-14T14:08:42.793Z,50.30
2019-05-14T14:11:12.626Z,50.20
2019-05-14T14:13:39.196Z,49.30
2019-05-14T14:16:13.653Z,49.20
2019-05-14T14:18:39.398Z,50.10
2019-05-14T14:21:09.066Z,50.00
2019-05-14T14:23:35.799Z,49.90
2019-05-14T14:26:02.339Z,48.90
2019-05-14T14:28:28.717Z,50.40
2019-05-14T14:30:55.073Z,50.70
2019-05-14T14:33:21.383Z,50.30
2019-05-14T14:35:48.546Z,49.90
2019-05-14T14:38:14.998Z,49.60
2019-05-14T14:40:41.504Z,50.20
2019-05-14T14:43:09.023Z,50.20
2019-05-14T14:45:44.763Z,50.20
2019-05-14T14:48:04.729Z,50.30
2019-05-14T14:50:31.168Z,50.70
2019-05-14T14:52:59.802Z,49.70
2019-05-14T14:55:25.712Z,51.10
2019-05-14T14:57:54.541Z,51.20
2019-05-14T15:00:20.468Z,50.90
2019-05-14T15:02:49.388Z,50.30
2019-05-14T15:05:15.761Z,50.40
2019-05-14T15:07:42.193Z,50.50
2019-05-14T15:10:08.852Z,50.50
2019-05-14T15:12:35.986Z,50.10
2019-05-14T15:15:04.685Z,50.30
2019-05-14T15:17:31.175Z,50.50
2019-05-14T15:19:59.483Z,50.90
2019-05-14T15:22:30.393Z,51.30
2019-05-14T15:24:54.015Z,51.90
2019-05-14T15:27:20.308Z,51.30
2019-05-14T15:29:48.890Z,50.20
2019-05-14T15:32:15.046Z,50.30
2019-05-14T15:34:43.914Z,50.50
2019-05-14T15:37:10.350Z,50.60
2019-05-14T15:39:39.074Z,50.60
2019-05-14T15:42:06.524Z,51.10
2019-05-14T15:44:47.414Z,50.60
2019-05-14T15:47:01.631Z,50.90
2019-05-14T15:49:28.370Z,50.40
2019-05-14T15:51:54.934Z,50.10
2019-05-14T15:54:36.257Z,49.60
2019-05-14T15:56:50.464Z,49.50
2019-05-14T15:59:19.264Z,50.30
2019-05-14T16:01:45.882Z,50.70
2019-05-14T16:04:12.287Z,50.80
2019-05-14T16:06:39.112Z,50.90
2019-05-14T16:09:05.636Z,50.90
2019-05-14T16:11:32.086Z,50.90
2019-05-14T16:13:58.441Z,50.50
2019-05-14T16:16:24.750Z,50.20
2019-05-14T16:18:51.143Z,50.40
2019-05-14T16:21:18.286Z,50.10
2019-05-14T16:23:44.955Z,50.60
2019-05-14T16:26:11.365Z,51.00
2019-05-14T16:28:39.441Z,51.00
2019-05-14T16:31:08.358Z,51.00
2019-05-14T16:33:34.651Z,50.80
2019-05-14T16:36:01.409Z,50.70
2019-05-14T16:38:28.522Z,51.00
2019-05-14T16:40:55.366Z,51.00
2019-05-14T16:43:21.962Z,51.70
2019-05-14T16:45:49.140Z,51.90
2019-05-14T16:48:18.127Z,52.10
2019-05-14T16:50:44.586Z,52.40
2019-05-14T16:53:11.660Z,52.40
2019-05-14T16:55:38.485Z,52.30
2019-05-14T16:58:05.109Z,52.50
2019-05-14T17:00:34.584Z,52.10
2019-05-14T17:02:59.921Z,51.80
2019-05-14T17:05:29.910Z,51.80
2019-05-14T17:07:58.532Z,52.20
2019-05-14T17:10:24.193Z,52.20
2019-05-14T17:12:56.855Z,52.40
2019-05-14T17:15:18.960Z,52.90
2019-05-14T17:17:45.263Z,53.10
2019-05-14T17:20:11.851Z,53.30
2019-05-14T17:22:39.766Z,54.00
2019-05-14T17:25:09.546Z,53.50
2019-05-14T17:27:35.222Z,52.50
2019-05-14T17:30:03.626Z,51.60
2019-05-14T17:32:30.408Z,51.50
2019-05-14T17:34:57.155Z,51.20
2019-05-14T17:37:23.468Z,50.90
2019-05-14T17:39:49.833Z,51.50
2019-05-14T17:42:19.126Z,52.30
2019-05-14T17:44:44.979Z,52.60
2019-05-14T17:47:11.458Z,52.40
2019-05-14T17:49:39.095Z,52.90
2019-05-14T17:52:05.738Z,53.00
2019-05-14T17:54:32.279Z,52.60
2019-05-14T17:56:59.242Z,51.80
2019-05-14T17:59:25.893Z,52.10
2019-05-14T18:01:52.680Z,52.00
2019-05-14T18:04:19.336Z,52.20
2019-05-14T18:06:48.674Z,52.30
2019-05-14T18:09:14.281Z,51.50
2019-05-14T18:11:40.632Z,50.30
2019-05-14T18:14:11.648Z,50.30
2019-05-14T18:16:35.228Z,50.10
2019-05-14T18:19:01.687Z,51.20
2019-05-14T18:21:28.565Z,51.80
2019-05-14T18:23:55.690Z,52.60
2019-05-14T18:26:22.360Z,53.10
2019-05-14T18:28:48.859Z,53.00
2019-05-14T18:31:15.381Z,53.00
2019-05-14T18:33:42.264Z,53.20
2019-05-14T18:36:08.955Z,53.10
2019-05-14T18:38:35.596Z,53.90
2019-05-14T18:41:04.896Z,54.40
2019-05-14T18:43:31.465Z,54.70
2019-05-14T18:46:00.533Z,55.20
2019-05-14T18:48:32.634Z,55.40
2019-05-14T18:51:01.253Z,55.20
2019-05-14T18:53:28.237Z,55.00
2019-05-14T18:55:59.474Z,55.20
2019-05-14T18:58:26.242Z,55.50
2019-05-14T19:00:53.637Z,55.90
2019-05-14T19:03:21.768Z,56.40
2019-05-14T19:05:48.437Z,56.70
2019-05-14T19:08:17.794Z,56.50
2019-05-14T19:10:44.442Z,56.70
2019-05-14T19:13:11.053Z,57.30
2019-05-14T19:15:38.828Z,57.20
2019-05-14T19:18:09.097Z,57.30
2019-05-14T19:20:35.481Z,57.70
2019-05-14T19:23:03.251Z,57.70
2019-05-14T19:25:29.837Z,57.90
2019-05-14T19:27:58.288Z,58.20
2019-05-14T19:30:25.180Z,58.40
2019-05-14T19:32:52.380Z,58.60
2019-05-14T19:35:19.289Z,58.90
2019-05-14T19:37:48.821Z,59.10
2019-05-14T19:40:15.711Z,59.20
2019-05-14T19:42:42.508Z,59.00
2019-05-14T19:45:09.104Z,59.00
2019-05-14T19:47:35.849Z,59.00
2019-05-14T19:50:05.289Z,58.80
2019-05-14T19:52:31.796Z,59.10
2019-05-14T19:54:58.279Z,59.80
2019-05-14T19:57:28.994Z,59.70
2019-05-14T19:59:55.031Z,59.70
2019-05-14T20:02:23.519Z,59.60
2019-05-14T20:04:50.257Z,59.70
2019-05-14T20:07:18.091Z,60.10
2019-05-14T20:09:48.303Z,59.90
2019-05-14T20:12:14.929Z,60.50
2019-05-14T20:14:41.408Z,61.00
2019-05-14T20:17:08.976Z,61.70
2019-05-14T20:19:39.348Z,62.20
2019-05-14T20:22:05.351Z,62.60
2019-05-14T20:24:31.811Z,63.50
2019-05-14T20:27:08.302Z,63.80
2019-05-14T20:29:29.015Z,64.20
2019-05-14T20:31:55.497Z,64.80
2019-05-14T20:34:22.308Z,65.20
2019-05-14T20:36:48.809Z,66.40
2019-05-14T20:39:15.369Z,66.40
2019-05-14T20:41:42.697Z,66.90
2019-05-14T20:44:09.536Z,67.80
2019-05-14T20:46:38.083Z,68.20
2019-05-14T20:49:08.614Z,69.10
2019-05-14T20:51:35.243Z,69.50
2019-05-14T20:54:01.819Z,69.40
2019-05-14T20:56:28.693Z,69.40
2019-05-14T20:58:55.064Z,70.10
2019-05-14T21:01:21.466Z,70.50
2019-05-14T21:03:48.326Z,70.60
2019-05-14T21:06:14.784Z,70.90
2019-05-14T21:08:42.360Z,71.00
2019-05-14T21:11:09.866Z,71.50
2019-05-14T21:13:36.926Z,71.40
2019-05-14T21:16:31.440Z,72.50
2019-05-14T21:18:50.884Z,72.70
2019-05-14T21:21:18.554Z,74.70
2019-05-14T21:23:48.820Z,74.90
2019-05-14T21:26:14.723Z,75.50
2019-05-14T21:28:41.142Z,75.90
2019-05-14T21:31:11.261Z,76.90
2019-05-14T21:33:39.760Z,76.80
2019-05-14T21:36:14.276Z,77.40
2019-05-14T21:38:48.989Z,77.20
2019-05-14T21:41:20.176Z,78.60
2019-05-14T21:43:49.267Z,79.00
2019-05-14T21:46:14.475Z,80.50
2019-05-14T21:48:40.830Z,80.80
2019-05-14T21:51:08.745Z,82.70
2019-05-14T21:53:35.355Z,83.60
2019-05-14T21:56:01.900Z,85.30
2019-05-14T21:58:29.226Z,86.70
2019-05-14T22:00:59.237Z,89.00
2019-05-14T22:03:25.538Z,88.20
2019-05-14T22:05:51.976Z,91.00
2019-05-14T22:08:18.599Z,90.80
2019-05-14T22:10:45.103Z,91.50
2019-05-14T22:13:11.513Z,91.60
2019-05-14T22:15:38.924Z,91.80
2019-05-14T22:18:16.516Z,92.10
2019-05-14T22:20:34.057Z,92.30
2019-05-14T22:23:00.699Z,92.70
2019-05-14T22:25:28.471Z,93.20
2019-05-14T22:28:09.022Z,93.40
2019-05-14T22:30:24.497Z,93.60
2019-05-14T22:32:50.795Z,94.30
2019-05-14T22:35:18.694Z,94.80
2019-05-14T22:37:45.248Z,95.50
2019-05-14T22:40:12.040Z,95.50
2019-05-14T22:42:39.311Z,95.80
2019-05-14T22:45:09.141Z,95.80
2019-05-14T22:47:34.763Z,96.20
2019-05-14T22:50:01.173Z,97.10
2019-05-14T22:52:30.903Z,97.50
2019-05-14T22:54:58.540Z,98.70
2019-05-14T22:57:24.480Z,99.20
2019-05-14T22:59:50.888Z,99.30
2019-05-14T23:02:19.387Z,99.20
2019-05-14T23:04:45.521Z,99.90
2019-05-14T23:07:11.931Z,99.70
2019-05-14T23:09:38.879Z,99.90
2019-05-14T23:12:05.275Z,99.90
2019-05-14T23:14:31.654Z,99.90
2019-05-14T23:16:58.373Z,99.90
2019-05-14T23:19:24.926Z,99.90
2019-05-14T23:21:51.245Z,99.90
2019-05-14T23:24:18.948Z,99.90
2019-05-14T23:26:45.479Z,99.90
2019-05-14T23:29:11.962Z,99.90
2019-05-14T23:31:38.628Z,99.90
2019-05-14T23:34:05.193Z,99.90
2019-05-14T23:36:31.606Z,99.90
2019-05-14T23:38:59.152Z,99.90
2019-05-14T23:41:25.601Z,99.90
2019-05-14T23:43:52.016Z,99.90
2019-05-14T23:46:18.457Z,99.90
2019-05-14T23:48:44.821Z,99.90
2019-05-14T23:51:11.206Z,99.90
2019-05-14T23:53:39.192Z,99.90
2019-05-14T23:56:05.652Z,99.90
2019-05-14T23:58:32.171Z,99.90
